Time;durP1;ratioP1;P1;durP2;ratioP2;P2;SDS_P1;SDS_P2;PMS_P1;PMS_P2;Temp;Humidity;BMP_temperature;BMP_pressure;BME280_temperature;BME280_humidity;BME280_pressure;Samples;Min_cycle;Max_cycle;Signal;HPM_P1;HPM_P2
2023/11/08 00:00:11;;;;;;;24.73;22.50;;;8.30;91.50;;;;;;5036273;28;20249;-91
2023/11/08 00:02:36;;;;;;;22.33;19.97;;;8.20;91.60;;;;;;5036336;28;20179;-91
2023/11/08 00:05:03;;;;;;;23.90;21.57;;;8.20;91.70;;;;;;5036042;28;20180;-91
2023/11/08 00:07:29;;;;;;;21.37;19.60;;;8.20;91.70;;;;;;5035779;28;20182;-91
2023/11/08 00:09:55;;;;;;;20.90;19.30;;;8.30;91.70;;;;;;5035478;28;20271;-90
2023/11/08 00:12:20;;;;;;;24.57;21.93;;;8.20;91.70;;;;;;5035414;28;20180;-91
2023/11/08 00:14:46;;;;;;;26.47;24.03;;;8.20;92.00;;;;;;5035440;28;20176;-89
2023/11/08 00:17:13;;;;;;;25.77;23.37;;;8.20;92.20;;;;;;5034981;28;20182;-91
2023/11/08 00:19:39;;;;;;;23.20;21.10;;;8.20;92.30;;;;;;5035151;28;20200;-91
2023/11/08 00:22:04;;;;;;;24.43;22.37;;;8.20;92.30;;;;;;5052797;28;20175;-91
2023/11/08 00:24:30;;;;;;;26.80;24.40;;;8.10;92.40;;;;;;5034981;28;20168;-92
2023/11/08 00:26:56;;;;;;;36.67;33.97;;;8.10;92.50;;;;;;5034919;28;20198;-89
2023/11/08 00:29:22;;;;;;;41.70;38.60;;;8.20;92.50;;;;;;5035123;28;20183;-89
2023/11/08 00:31:50;;;;;;;42.83;39.43;;;8.10;92.50;;;;;;5052663;28;20211;-91
2023/11/08 00:34:16;;;;;;;40.57;37.43;;;8.10;92.70;;;;;;5034748;28;20180;-89
2023/11/08 00:36:42;;;;;;;44.83;41.53;;;8.10;92.70;;;;;;5034828;28;20250;-92
2023/11/08 00:39:07;;;;;;;42.70;39.20;;;8.10;92.70;;;;;;5034751;28;20237;-90
2023/11/08 00:41:34;;;;;;;45.57;41.87;;;8.10;92.80;;;;;;5053374;28;20184;-91
2023/11/08 00:44:00;;;;;;;45.43;42.00;;;8.10;92.90;;;;;;5038607;28;20164;-89
2023/11/08 00:46:26;;;;;;;45.07;41.67;;;8.10;92.90;;;;;;5038345;28;20628;-91
2023/11/08 00:48:52;;;;;;;45.23;41.80;;;8.20;92.80;;;;;;5038402;28;20276;-90
2023/11/08 00:51:19;;;;;;;46.47;42.33;;;8.10;92.90;;;;;;5038438;28;20262;-91
2023/11/08 00:53:45;;;;;;;45.00;41.70;;;8.10;92.90;;;;;;5056604;28;20199;-91
2023/11/08 00:56:12;;;;;;;44.27;40.77;;;8.20;92.80;;;;;;5038350;28;20245;-90
2023/11/08 00:58:38;;;;;;;45.40;41.50;;;8.20;92.70;;;;;;5038157;28;20203;-88
2023/11/08 01:01:05;;;;;;;45.80;41.93;;;8.10;92.70;;;;;;5056226;28;20172;-90
2023/11/08 01:03:31;;;;;;;47.73;44.53;;;8.10;92.70;;;;;;5039158;28;20184;-90
2023/11/08 01:05:56;;;;;;;30.63;28.03;;;8.10;92.70;;;;;;5038206;28;20566;-91
2023/11/08 01:08:22;;;;;;;29.33;26.77;;;8.10;92.70;;;;;;5038654;28;20176;-92
2023/11/08 01:10:49;;;;;;;42.47;39.17;;;8.10;92.80;;;;;;5038230;28;20183;-91
2023/11/08 01:13:15;;;;;;;46.77;43.07;;;8.20;92.80;;;;;;5039179;28;20184;-91
2023/11/08 01:15:40;;;;;;;53.07;48.87;;;8.20;92.80;;;;;;5037978;28;20645;-90
2023/11/08 01:18:06;;;;;;;31.47;28.87;;;8.20;92.80;;;;;;5037948;28;20168;-91
2023/11/08 01:20:32;;;;;;;31.53;28.73;;;8.20;92.80;;;;;;5037794;28;20675;-89
2023/11/08 01:22:58;;;;;;;45.00;41.70;;;8.20;92.80;;;;;;5037842;28;20211;-89
2023/11/08 01:25:24;;;;;;;48.63;44.93;;;8.20;92.70;;;;;;5037714;28;20188;-88
2023/11/08 01:27:50;;;;;;;41.87;38.40;;;8.20;92.70;;;;;;5037776;28;20233;-89
2023/11/08 01:30:15;;;;;;;32.80;30.00;;;8.30;92.70;;;;;;5037644;28;20172;-89
2023/11/08 01:32:41;;;;;;;32.00;29.53;;;8.20;92.70;;;;;;5037508;28;20211;-88
2023/11/08 01:35:06;;;;;;;31.17;28.67;;;8.30;92.60;;;;;;5038171;28;20604;-89
2023/11/08 01:37:33;;;;;;;31.70;28.97;;;8.20;92.60;;;;;;5037326;28;20182;-90
2023/11/08 01:39:59;;;;;;;29.90;27.37;;;8.30;92.50;;;;;;5055205;28;20252;-89
2023/11/08 01:42:25;;;;;;;31.30;28.37;;;8.30;92.50;;;;;;5037164;28;20215;-91
2023/11/08 01:44:50;;;;;;;31.80;28.87;;;8.30;92.50;;;;;;5037252;28;20172;-89
2023/11/08 01:47:17;;;;;;;27.80;25.47;;;8.30;92.40;;;;;;5037370;28;20578;-90
2023/11/08 01:49:43;;;;;;;28.47;26.07;;;8.30;92.40;;;;;;5037290;28;20183;-90
2023/11/08 01:52:11;;;;;;;30.50;27.87;;;8.30;92.30;;;;;;5037995;28;20254;-90
2023/11/08 01:54:43;;;;;;;31.00;28.27;;;8.30;92.10;;;;;;5036526;28;20218;-89
2023/11/08 01:57:08;;;;;;;30.63;27.90;;;8.40;92.10;;;;;;5037852;28;20228;-92
2023/11/08 01:59:35;;;;;;;30.93;28.40;;;8.40;91.90;;;;;;5037454;28;20346;-91
2023/11/08 02:02:01;;;;;;;30.53;27.90;;;8.40;91.90;;;;;;5038060;28;20248;-92
2023/11/08 02:04:28;;;;;;;28.43;26.10;;;8.40;91.70;;;;;;5037534;28;20204;-93
2023/11/08 02:06:54;;;;;;;29.80;27.40;;;8.40;91.70;;;;;;5040686;28;20282;-92
2023/11/08 02:09:20;;;;;;;28.27;26.10;;;8.40;91.80;;;;;;5040994;28;20655;-93
2023/11/08 02:11:45;;;;;;;29.77;27.30;;;8.40;91.60;;;;;;5042559;28;20178;-93
2023/11/08 02:14:11;;;;;;;32.13;28.90;;;8.40;91.70;;;;;;5038387;28;20179;-92
2023/11/08 02:16:37;;;;;;;29.70;27.27;;;8.40;91.60;;;;;;5037733;28;20679;-91
2023/11/08 02:19:05;;;;;;;31.90;28.97;;;8.40;91.70;;;;;;5037611;28;20740;-92
2023/11/08 02:21:31;;;;;;;30.83;28.13;;;8.40;91.50;;;;;;5037238;28;20218;-92
2023/11/08 02:24:17;;;;;;;45.00;41.10;;;8.40;91.50;;;;;;5055155;28;20168;-92
2023/11/08 02:26:46;;;;;;;45.33;41.20;;;8.40;91.50;;;;;;5037546;28;20195;-91
2023/11/08 02:29:12;;;;;;;44.90;41.70;;;8.40;91.40;;;;;;5037925;28;20180;-91
2023/11/08 02:31:38;;;;;;;43.90;40.73;;;8.40;91.40;;;;;;5038218;28;20180;-91
2023/11/08 02:34:05;;;;;;;41.37;38.27;;;8.40;91.20;;;;;;5037033;28;20274;-91
2023/11/08 02:36:33;;;;;;;42.97;39.87;;;8.50;91.20;;;;;;5037427;28;20217;-92
2023/11/08 02:38:59;;;;;;;41.00;37.70;;;8.40;91.20;;;;;;5037061;28;20204;-91
2023/11/08 02:41:24;;;;;;;41.80;38.60;;;8.40;91.40;;;;;;5037230;28;20253;-91
2023/11/08 02:43:50;;;;;;;36.70;34.00;;;8.40;91.30;;;;;;5037190;28;20175;-91
2023/11/08 02:46:15;;;;;;;39.07;36.27;;;8.40;91.20;;;;;;5036588;28;20241;-91
2023/11/08 02:48:42;;;;;;;39.67;36.77;;;8.40;91.20;;;;;;5036910;28;20554;-92
2023/11/08 02:51:08;;;;;;;38.80;36.07;;;8.40;91.30;;;;;;5036687;28;20186;-90
2023/11/08 02:53:33;;;;;;;41.70;38.80;;;8.40;91.30;;;;;;5036954;28;20266;-91
2023/11/08 02:55:59;;;;;;;41.90;38.53;;;8.40;91.30;;;;;;5036803;28;20196;-92
2023/11/08 02:58:24;;;;;;;45.60;42.30;;;8.40;91.20;;;;;;5037163;28;20187;-91
2023/11/08 03:00:54;;;;;;;25.40;23.17;;;8.40;91.10;;;;;;5036449;28;20530;-92
2023/11/08 03:03:20;;;;;;;24.00;21.77;;;8.40;91.10;;;;;;5036576;28;20210;-92
2023/11/08 03:05:45;;;;;;;32.50;30.03;;;8.40;91.10;;;;;;5035611;28;20195;-92
2023/11/08 03:08:11;;;;;;;36.90;34.20;;;8.40;91.10;;;;;;5036511;28;20306;-91
2023/11/08 03:10:37;;;;;;;43.33;40.13;;;8.40;90.90;;;;;;5037084;28;20199;-91
2023/11/08 03:13:04;;;;;;;26.80;24.87;;;8.40;91.00;;;;;;5036410;28;20183;-91
2023/11/08 03:15:31;;;;;;;26.63;24.53;;;8.40;91.00;;;;;;5036390;28;20582;-91
2023/11/08 03:17:57;;;;;;;38.97;36.07;;;8.40;91.00;;;;;;5054427;28;20232;-92
2023/11/08 03:20:23;;;;;;;38.97;36.17;;;8.40;91.10;;;;;;5036716;28;20294;-91
2023/11/08 03:22:49;;;;;;;40.70;37.70;;;8.30;91.10;;;;;;5036048;28;20172;-92
2023/11/08 03:25:16;;;;;;;27.23;25.13;;;8.40;91.10;;;;;;5036091;28;20202;-91
2023/11/08 03:27:43;;;;;;;24.97;23.00;;;8.40;91.10;;;;;;5036855;28;20214;-92
2023/11/08 03:30:16;;;;;;;25.97;23.80;;;8.40;91.10;;;;;;5036198;28;20190;-92
2023/11/08 03:32:42;;;;;;;25.77;23.77;;;8.30;91.00;;;;;;5036188;28;20176;-92
2023/11/08 03:35:09;;;;;;;25.63;23.63;;;8.40;90.90;;;;;;5036237;28;20199;-91
2023/11/08 03:37:39;;;;;;;27.67;25.43;;;8.30;91.10;;;;;;5036033;28;20652;-92
2023/11/08 03:40:06;;;;;;;26.80;24.50;;;8.30;91.20;;;;;;5036682;28;20208;-92
2023/11/08 03:42:34;;;;;;;25.53;23.63;;;8.30;91.20;;;;;;5036530;28;20200;-90
2023/11/08 03:45:01;;;;;;;26.93;24.90;;;8.30;91.10;;;;;;5036129;28;20597;-91
2023/11/08 03:47:27;;;;;;;26.00;24.10;;;8.30;91.10;;;;;;5036280;28;20179;-91
2023/11/08 03:49:54;;;;;;;26.07;23.50;;;8.30;91.10;;;;;;5036666;28;20659;-92
2023/11/08 03:52:20;;;;;;;27.23;24.63;;;8.30;91.10;;;;;;5036339;28;20705;-91
2023/11/08 03:54:45;;;;;;;25.87;23.63;;;8.30;91.10;;;;;;5036282;28;20223;-90
2023/11/08 03:57:11;;;;;;;26.43;24.33;;;8.30;91.10;;;;;;5036305;28;20198;-91
2023/11/08 03:59:37;;;;;;;22.23;20.63;;;8.30;91.10;;;;;;5036430;28;20238;-93
2023/11/08 04:02:02;;;;;;;25.90;23.60;;;8.40;91.00;;;;;;5036494;28;20584;-90
2023/11/08 04:04:28;;;;;;;25.77;23.87;;;8.40;91.00;;;;;;5054041;28;20176;-90
2023/11/08 04:06:53;;;;;;;25.83;23.63;;;8.40;91.00;;;;;;5036006;28;20191;-92
2023/11/08 04:09:19;;;;;;;26.07;23.83;;;8.40;91.10;;;;;;5036134;28;20182;-91
2023/11/08 04:11:44;;;;;;;25.47;23.20;;;8.40;91.00;;;;;;5036254;28;20632;-90
2023/11/08 04:14:10;;;;;;;25.33;23.10;;;8.40;90.90;;;;;;5036687;28;20198;-91
2023/11/08 04:16:39;;;;;;;25.13;23.03;;;8.40;90.90;;;;;;5036937;28;20200;-92
2023/11/08 04:19:05;;;;;;;39.67;36.97;;;8.40;91.00;;;;;;5039920;28;20226;-91
2023/11/08 04:21:31;;;;;;;39.00;35.93;;;8.40;91.00;;;;;;5039951;28;20648;-92
2023/11/08 04:23:57;;;;;;;39.27;36.30;;;8.50;90.90;;;;;;5039996;28;20183;-90
2023/11/08 04:26:22;;;;;;;41.37;38.40;;;8.40;91.00;;;;;;5040003;28;20192;-91
2023/11/08 04:28:48;;;;;;;41.73;38.63;;;8.40;90.90;;;;;;5039820;28;20176;-91
2023/11/08 04:31:14;;;;;;;42.10;39.10;;;8.40;90.90;;;;;;5040194;28;20648;-90
2023/11/08 04:33:40;;;;;;;38.23;35.30;;;8.40;90.90;;;;;;5039701;28;20180;-92
2023/11/08 04:36:08;;;;;;;39.67;36.87;;;8.40;90.70;;;;;;5039727;28;20196;-89
2023/11/08 04:38:34;;;;;;;43.07;39.57;;;8.30;90.80;;;;;;5039746;28;20245;-92
2023/11/08 04:41:01;;;;;;;37.63;34.93;;;8.30;90.80;;;;;;5039414;28;20608;-91
2023/11/08 04:43:29;;;;;;;38.23;35.53;;;8.30;90.90;;;;;;5040439;28;20163;-91
2023/11/08 04:45:54;;;;;;;38.27;35.67;;;8.40;90.80;;;;;;5039643;28;20195;-91
2023/11/08 04:48:20;;;;;;;39.17;36.57;;;8.40;90.90;;;;;;5039275;28;20550;-92
2023/11/08 04:50:46;;;;;;;38.50;35.70;;;8.40;90.90;;;;;;5039635;28;20644;-92
2023/11/08 04:53:13;;;;;;;39.27;36.40;;;8.40;91.00;;;;;;5039238;28;20172;-91
2023/11/08 04:55:38;;;;;;;44.40;40.63;;;8.40;91.00;;;;;;5039120;28;20192;-92
2023/11/08 04:58:04;;;;;;;26.83;24.73;;;8.40;91.10;;;;;;5039195;28;20554;-92
2023/11/08 05:00:29;;;;;;;27.83;25.50;;;8.30;91.10;;;;;;5039364;28;20214;-93
2023/11/08 05:02:55;;;;;;;39.10;36.40;;;8.30;91.10;;;;;;5039974;28;20173;-91
2023/11/08 05:05:20;;;;;;;39.87;36.97;;;8.40;91.10;;;;;;5039295;28;20287;-91
2023/11/08 05:07:47;;;;;;;42.13;38.53;;;8.40;91.10;;;;;;5039506;28;20230;-91
2023/11/08 05:10:13;;;;;;;26.80;24.67;;;8.40;91.20;;;;;;5041974;28;20172;-89
2023/11/08 05:12:39;;;;;;;27.57;25.13;;;8.40;91.20;;;;;;5056559;28;20172;-90
2023/11/08 05:15:08;;;;;;;40.50;37.27;;;8.40;91.20;;;;;;5039072;28;20254;-90
2023/11/08 05:17:37;;;;;;;37.93;35.07;;;8.40;91.30;;;;;;5038056;28;20175;-89
2023/11/08 05:20:05;;;;;;;41.57;38.47;;;8.40;91.30;;;;;;5039850;28;20200;-90
2023/11/08 05:22:32;;;;;;;28.77;26.53;;;8.40;91.30;;;;;;5040466;28;20549;-89
2023/11/08 05:24:58;;;;;;;27.90;25.40;;;8.30;91.30;;;;;;5038977;28;20176;-91
2023/11/08 05:27:24;;;;;;;29.30;26.83;;;8.30;91.40;;;;;;5038917;28;20203;-93
2023/11/08 05:29:49;;;;;;;30.67;27.77;;;8.30;91.40;;;;;;5040569;28;20180;-92
2023/11/08 05:32:19;;;;;;;30.40;27.70;;;8.30;91.50;;;;;;5040511;28;20184;-89
2023/11/08 05:34:44;;;;;;;31.13;28.40;;;8.30;91.60;;;;;;5038357;28;20176;-91
2023/11/08 05:37:10;;;;;;;31.47;28.83;;;8.30;91.60;;;;;;5037656;28;20187;-90
2023/11/08 05:39:36;;;;;;;30.73;27.60;;;8.30;91.60;;;;;;5037522;28;20655;-91
2023/11/08 05:42:01;;;;;;;31.07;28.67;;;8.30;91.70;;;;;;5038067;28;20291;-91
2023/11/08 05:44:27;;;;;;;29.77;27.33;;;8.30;91.70;;;;;;5038103;28;20262;-91
2023/11/08 05:46:52;;;;;;;29.87;27.60;;;8.30;91.80;;;;;;5037527;28;20192;-91
2023/11/08 05:49:18;;;;;;;31.77;28.93;;;8.30;91.80;;;;;;5037738;28;20261;-91
2023/11/08 05:51:43;;;;;;;30.23;27.40;;;8.30;91.80;;;;;;5037658;28;20560;-91
2023/11/08 05:54:09;;;;;;;31.47;28.77;;;8.20;91.80;;;;;;5055052;28;20226;-90
2023/11/08 05:56:35;;;;;;;30.47;27.97;;;8.30;91.80;;;;;;5037110;28;20210;-89
2023/11/08 05:59:00;;;;;;;31.43;28.07;;;8.30;91.70;;;;;;5037264;28;20200;-92
2023/11/08 06:01:26;;;;;;;29.10;26.80;;;8.20;91.70;;;;;;5037122;28;20172;-92
2023/11/08 06:03:52;;;;;;;28.93;26.70;;;8.20;91.70;;;;;;5037188;28;20176;-92
2023/11/08 06:06:17;;;;;;;30.70;27.67;;;8.20;91.80;;;;;;5037055;28;20204;-90
2023/11/08 06:08:45;;;;;;;29.23;26.67;;;8.30;91.70;;;;;;5037313;28;20168;-91
2023/11/08 06:11:15;;;;;;;29.53;27.17;;;8.20;91.60;;;;;;5037575;28;20204;-91
2023/11/08 06:13:42;;;;;;;28.83;26.30;;;8.30;91.60;;;;;;5039415;28;20199;-91
2023/11/08 06:16:07;;;;;;;40.77;37.27;;;8.20;91.40;;;;;;5036810;28;20192;-90
2023/11/08 06:18:33;;;;;;;39.77;36.40;;;8.20;91.50;;;;;;5037185;28;20262;-90
2023/11/08 06:20:59;;;;;;;42.57;39.03;;;8.10;91.50;;;;;;5037382;28;20282;-91
2023/11/08 06:23:24;;;;;;;41.37;38.00;;;8.10;91.50;;;;;;5036804;28;20183;-91
2023/11/08 06:25:50;;;;;;;38.33;35.53;;;8.20;91.50;;;;;;5036724;28;20196;-90
2023/11/08 06:28:15;;;;;;;39.40;36.33;;;8.20;91.30;;;;;;5036620;28;20717;-89
2023/11/08 06:30:41;;;;;;;40.43;37.53;;;8.30;91.20;;;;;;5037230;28;20270;-89
2023/11/08 06:33:07;;;;;;;38.97;35.97;;;8.20;91.10;;;;;;5054391;28;20168;-89
2023/11/08 06:35:35;;;;;;;42.27;38.90;;;8.20;91.20;;;;;;5054342;28;20679;-91
2023/11/08 06:38:01;;;;;;;41.93;38.23;;;8.30;91.30;;;;;;5036651;28;20203;-90
2023/11/08 06:40:26;;;;;;;42.40;39.30;;;8.20;91.30;;;;;;5036006;28;20687;-90
2023/11/08 06:42:52;;;;;;;38.53;35.80;;;8.20;91.30;;;;;;5036564;28;20198;-90
2023/11/08 06:45:17;;;;;;;40.00;36.73;;;8.20;91.20;;;;;;5036195;28;20691;-91
2023/11/08 06:47:43;;;;;;;39.40;36.70;;;8.30;91.20;;;;;;5036206;28;20524;-90
2023/11/08 06:50:10;;;;;;;39.07;36.27;;;8.30;90.80;;;;;;5036274;28;20548;-91
2023/11/08 06:52:37;;;;;;;40.37;37.37;;;8.30;90.60;;;;;;5054274;28;20172;-91
2023/11/08 06:55:04;;;;;;;25.93;23.73;;;8.30;90.60;;;;;;5036242;28;20195;-91
2023/11/08 06:57:29;;;;;;;24.60;22.80;;;8.30;90.60;;;;;;5036208;28;20294;-89
2023/11/08 06:59:55;;;;;;;36.40;33.63;;;8.30;90.70;;;;;;5035857;28;20287;-89
2023/11/08 07:02:21;;;;;;;38.50;35.80;;;8.30;90.70;;;;;;5036756;28;20186;-91
2023/11/08 07:04:46;;;;;;;36.53;34.07;;;8.30;90.80;;;;;;5035685;28;20180;-90
2023/11/08 07:07:12;;;;;;;24.37;22.27;;;8.30;90.70;;;;;;5053996;28;20184;-89
2023/11/08 07:09:38;;;;;;;26.37;24.10;;;8.40;90.70;;;;;;5035906;28;20597;-89
2023/11/08 07:12:03;;;;;;;37.57;34.97;;;8.40;90.70;;;;;;5036022;28;20176;-90
2023/11/08 07:14:29;;;;;;;40.10;37.30;;;8.40;90.70;;;;;;5036082;28;20222;-91
2023/11/08 07:16:54;;;;;;;43.17;39.80;;;8.40;90.70;;;;;;5035843;28;20195;-89
2023/11/08 07:19:20;;;;;;;27.20;25.10;;;8.40;90.70;;;;;;5035635;28;20230;-89
2023/11/08 07:21:45;;;;;;;25.93;23.70;;;8.40;90.70;;;;;;5035702;28;20179;-89
2023/11/08 07:24:11;;;;;;;27.43;25.37;;;8.50;90.70;;;;;;5036435;28;20180;-92
2023/11/08 07:26:37;;;;;;;27.50;25.40;;;8.50;90.70;;;;;;5035524;28;20619;-91
2023/11/08 07:29:04;;;;;;;26.80;24.90;;;8.50;90.80;;;;;;5035552;28;20179;-91
2023/11/08 07:31:33;;;;;;;27.43;25.00;;;8.60;90.80;;;;;;5035581;28;20715;-91
2023/11/08 07:34:00;;;;;;;26.97;24.77;;;8.60;90.80;;;;;;5035396;28;20183;-89
2023/11/08 07:36:29;;;;;;;26.57;24.37;;;8.60;90.80;;;;;;5035492;28;20292;-88
2023/11/08 07:38:54;;;;;;;27.83;25.67;;;8.60;90.80;;;;;;5053103;28;20191;-91
2023/11/08 07:41:20;;;;;;;29.83;27.40;;;8.70;90.80;;;;;;5035376;28;20188;-90
2023/11/08 07:43:47;;;;;;;28.90;26.70;;;8.70;90.80;;;;;;5053377;28;20160;-91
2023/11/08 07:46:12;;;;;;;29.00;26.57;;;8.70;90.90;;;;;;5035442;28;20227;-91
2023/11/08 07:48:38;;;;;;;27.70;25.37;;;8.60;90.90;;;;;;5036158;28;20229;-91
2023/11/08 07:51:03;;;;;;;28.80;26.50;;;8.70;90.90;;;;;;5034737;28;20199;-91
2023/11/08 07:53:30;;;;;;;27.20;24.70;;;8.70;90.80;;;;;;5035738;28;20184;-91
2023/11/08 07:55:55;;;;;;;28.20;25.60;;;8.70;90.80;;;;;;5052978;28;20196;-91
2023/11/08 07:58:21;;;;;;;25.63;23.50;;;8.70;90.30;;;;;;5035246;28;20262;-91
2023/11/08 08:00:47;;;;;;;26.40;24.40;;;8.70;90.30;;;;;;5053336;28;20196;-91
2023/11/08 08:03:13;;;;;;;28.27;25.77;;;8.70;90.40;;;;;;5053077;28;20188;-90
2023/11/08 08:05:44;;;;;;;26.50;24.50;;;8.60;90.40;;;;;;5035068;28;20198;-89
2023/11/08 08:08:10;;;;;;;28.47;26.13;;;8.60;90.40;;;;;;5035209;28;20161;-90
2023/11/08 08:10:36;;;;;;;25.45;23.40;;;8.70;90.40;;;;;;5035076;28;20241;-92
2023/11/08 08:13:05;;;;;;;39.50;36.40;;;8.70;90.30;;;;;;5035214;28;20180;-92
2023/11/08 08:15:31;;;;;;;38.87;36.17;;;8.80;90.00;;;;;;5052717;28;20202;-89
2023/11/08 08:17:57;;;;;;;36.43;33.63;;;8.80;89.70;;;;;;5034955;28;20267;-91
2023/11/08 08:20:25;;;;;;;36.00;33.17;;;8.70;89.90;;;;;;5035677;28;20207;-91
2023/11/08 08:22:52;;;;;;;40.07;37.20;;;8.80;89.90;;;;;;5034915;28;20199;-91
2023/11/08 08:25:17;;;;;;;39.83;36.80;;;8.80;90.00;;;;;;5035487;28;20195;-91
2023/11/08 08:27:44;;;;;;;41.00;38.10;;;8.90;90.00;;;;;;5035035;28;20168;-90
2023/11/08 08:30:11;;;;;;;37.20;34.70;;;8.90;90.00;;;;;;5034860;28;20708;-90
2023/11/08 08:32:37;;;;;;;38.70;35.90;;;8.90;89.60;;;;;;5034862;28;20183;-88
2023/11/08 08:35:04;;;;;;;36.77;34.37;;;8.90;89.60;;;;;;5052590;28;20551;-90
2023/11/08 08:37:31;;;;;;;39.20;36.13;;;8.90;89.90;;;;;;5034980;28;20240;-90
2023/11/08 08:39:57;;;;;;;38.60;36.00;;;9.00;90.30;;;;;;5034798;28;20671;-91
2023/11/08 08:42:22;;;;;;;40.43;37.17;;;8.90;90.70;;;;;;5034673;28;20194;-91
2023/11/08 08:44:49;;;;;;;41.50;38.07;;;8.90;90.80;;;;;;5034744;28;20176;-90
2023/11/08 08:47:15;;;;;;;41.57;38.63;;;8.90;90.70;;;;;;5053279;28;20187;-90
2023/11/08 08:49:40;;;;;;;44.80;41.90;;;9.00;90.90;;;;;;5035602;28;20183;-92
2023/11/08 08:52:06;;;;;;;29.70;26.97;;;9.10;90.90;;;;;;5037588;28;20192;-94
2023/11/08 08:54:31;;;;;;;27.93;25.90;;;9.10;90.80;;;;;;5037162;28;20203;-92
2023/11/08 08:56:58;;;;;;;39.43;36.63;;;9.10;90.60;;;;;;5037196;28;20196;-91
2023/11/08 08:59:24;;;;;;;42.20;38.80;;;9.10;90.60;;;;;;5036492;28;20687;-92
2023/11/08 09:01:49;;;;;;;47.53;44.27;;;9.00;90.50;;;;;;5036438;28;20172;-92
2023/11/08 09:04:15;;;;;;;28.00;25.30;;;9.10;90.30;;;;;;5040046;28;20176;-91
2023/11/08 09:06:41;;;;;;;28.27;25.53;;;9.10;90.40;;;;;;5040601;28;20196;-91
2023/11/08 09:09:13;;;;;;;44.50;40.70;;;9.10;90.40;;;;;;5039959;28;20219;-92
2023/11/08 09:11:40;;;;;;;44.70;41.17;;;9.20;90.50;;;;;;5040489;28;20180;-92
2023/11/08 09:14:09;;;;;;;29.03;26.53;;;9.20;90.50;;;;;;5040922;28;20212;-92
2023/11/08 09:16:37;;;;;;;30.10;27.90;;;9.30;90.40;;;;;;5040910;28;20200;-92
2023/11/08 09:19:05;;;;;;;29.30;26.60;;;9.30;90.50;;;;;;5039680;28;20242;-91
2023/11/08 09:21:30;;;;;;;31.37;28.33;;;9.30;90.40;;;;;;5039153;28;20176;-93
2023/11/08 09:23:56;;;;;;;32.47;29.57;;;9.30;90.40;;;;;;5040709;28;20180;-92
2023/11/08 09:26:22;;;;;;;29.30;26.90;;;9.30;90.50;;;;;;5039067;28;20201;-92
2023/11/08 09:28:47;;;;;;;31.57;28.87;;;9.30;90.50;;;;;;5039174;28;20179;-92
2023/11/08 09:31:15;;;;;;;30.67;28.20;;;9.30;90.50;;;;;;5046392;28;20180;-92
2023/11/08 09:33:41;;;;;;;30.30;27.80;;;9.30;90.50;;;;;;5057804;28;20172;-92
2023/11/08 09:36:07;;;;;;;31.83;29.00;;;9.30;90.50;;;;;;5047206;28;20242;-92
2023/11/08 09:38:32;;;;;;;30.10;27.30;;;9.30;90.40;;;;;;5038301;28;20212;-90
2023/11/08 09:40:58;;;;;;;29.93;27.50;;;9.30;90.60;;;;;;5037720;28;20556;-91
2023/11/08 09:43:24;;;;;;;29.90;27.30;;;9.40;90.60;;;;;;5037573;28;20230;-90
2023/11/08 09:45:50;;;;;;;29.40;26.90;;;9.40;90.40;;;;;;5037598;28;20704;-90
2023/11/08 09:48:19;;;;;;;31.00;28.10;;;9.50;90.30;;;;;;5037414;28;20172;-91
2023/11/08 09:50:46;;;;;;;32.23;28.90;;;9.40;90.10;;;;;;5055715;28;20183;-91
2023/11/08 09:53:13;;;;;;;30.70;27.80;;;9.50;90.20;;;;;;5037658;28;20179;-91
2023/11/08 09:55:38;;;;;;;32.80;29.63;;;9.50;90.10;;;;;;5037485;28;20224;-90
2023/11/08 09:58:06;;;;;;;28.97;26.70;;;9.60;90.10;;;;;;5037165;28;20208;-91
2023/11/08 10:00:33;;;;;;;28.20;26.10;;;9.60;90.00;;;;;;5039520;28;20291;-91
2023/11/08 10:02:59;;;;;;;28.90;26.43;;;9.60;89.60;;;;;;5037805;28;20176;-90
2023/11/08 10:05:26;;;;;;;28.87;26.33;;;9.70;89.70;;;;;;5054910;28;20282;-89
2023/11/08 10:07:53;;;;;;;29.43;26.67;;;9.70;89.70;;;;;;5055971;28;20633;-90
2023/11/08 10:10:18;;;;;;;38.10;35.33;;;9.70;89.70;;;;;;5037264;28;20188;-89
2023/11/08 10:12:44;;;;;;;40.80;37.37;;;9.70;89.50;;;;;;5037239;28;20180;-89
2023/11/08 10:15:11;;;;;;;39.47;36.23;;;9.80;89.40;;;;;;5036561;28;20227;-89
2023/11/08 10:17:41;;;;;;;40.27;36.77;;;9.80;89.30;;;;;;5037347;28;20180;-90
2023/11/08 10:20:09;;;;;;;39.07;35.70;;;9.90;89.40;;;;;;5036783;28;20203;-90
2023/11/08 10:22:35;;;;;;;36.23;33.53;;;10.00;89.00;;;;;;5036901;28;20176;-91
2023/11/08 10:25:04;;;;;;;37.10;33.77;;;10.10;89.10;;;;;;5036953;28;20176;-90
2023/11/08 10:27:31;;;;;;;38.83;35.57;;;10.20;88.60;;;;;;5036811;28;20558;-88
2023/11/08 10:30:18;;;;;;;34.67;31.97;;;10.20;88.00;;;;;;5036638;28;20207;-91
2023/11/08 10:32:45;;;;;;;37.37;34.23;;;10.30;88.10;;;;;;5036659;28;20176;-90
2023/11/08 10:35:21;;;;;;;41.33;37.57;;;10.20;87.90;;;;;;5036623;28;20200;-89
2023/11/08 10:37:48;;;;;;;38.60;35.40;;;10.20;88.20;;;;;;5036551;28;20585;-90
2023/11/08 10:40:14;;;;;;;39.27;36.17;;;10.20;88.20;;;;;;5036640;28;20278;-89
2023/11/08 10:42:48;;;;;;;38.13;34.87;;;10.20;88.00;;;;;;5054153;28;20180;-90
2023/11/08 10:45:13;;;;;;;40.83;37.77;;;10.20;87.90;;;;;;5036577;28;20195;-89
2023/11/08 10:47:40;;;;;;;26.83;24.53;;;10.20;87.70;;;;;;5054173;28;20210;-90
2023/11/08 10:50:08;;;;;;;26.87;24.27;;;10.20;87.50;;;;;;5054188;28;20225;-90
2023/11/08 10:52:35;;;;;;;27.03;24.23;;;10.20;87.60;;;;;;5036856;28;20211;-91
2023/11/08 10:55:04;;;;;;;39.93;35.93;;;10.30;87.50;;;;;;5054020;28;20172;-91
2023/11/08 10:57:35;;;;;;;39.57;36.33;;;10.30;87.40;;;;;;5036161;28;20230;-90
2023/11/08 11:00:04;;;;;;;26.80;24.40;;;10.30;87.20;;;;;;5036526;28;20212;-91
2023/11/08 11:02:35;;;;;;;25.47;22.93;;;10.30;87.20;;;;;;5036110;28;20179;-90
2023/11/08 11:05:08;;;;;;;42.10;38.47;;;10.30;87.00;;;;;;5036959;28;20173;-92
2023/11/08 11:07:41;;;;;;;40.00;36.73;;;10.40;87.60;;;;;;5036743;28;20551;-90
2023/11/08 11:10:13;;;;;;;43.23;39.57;;;10.40;87.30;;;;;;5053653;28;20616;-90
2023/11/08 11:12:41;;;;;;;25.17;22.73;;;10.40;87.20;;;;;;5036204;28;20269;-90
2023/11/08 11:15:34;;;;;;;24.83;22.50;;;10.30;86.80;;;;;;5035673;28;20196;-90
2023/11/08 11:18:03;;;;;;;25.97;23.27;;;10.40;87.00;;;;;;5008535;28;20274;-92
2023/11/08 11:20:34;;;;;;;26.70;22.93;;;10.50;86.20;;;;;;5036235;28;20211;-91
2023/11/08 11:23:00;;;;;;;23.67;21.60;;;10.70;86.30;;;;;;5053676;28;20570;-91
2023/11/08 11:25:45;;;;;;;21.67;20.00;;;10.60;85.80;;;;;;5036085;28;20283;-90
2023/11/08 11:28:10;;;;;;;22.87;20.80;;;10.70;86.00;;;;;;5035937;28;20210;-90
2023/11/08 11:30:36;;;;;;;24.40;22.27;;;10.70;85.70;;;;;;5035624;28;20179;-91
2023/11/08 11:33:04;;;;;;;25.73;22.97;;;10.70;86.00;;;;;;5035671;28;20206;-90
2023/11/08 11:35:30;;;;;;;23.83;21.83;;;10.80;85.70;;;;;;5053255;28;20188;-88
2023/11/08 11:38:10;;;;;;;23.60;21.53;;;10.70;85.50;;;;;;5053980;28;20176;-90
2023/11/08 11:40:37;;;;;;;24.17;22.13;;;10.60;85.40;;;;;;5035571;28;20255;-90
2023/11/08 11:43:41;;;;;;;24.10;21.80;;;10.60;84.70;;;;;;5035600;28;20675;-89
2023/11/08 11:46:06;;;;;;;23.30;21.27;;;10.70;85.10;;;;;;5035676;28;20192;-90
2023/11/08 11:48:33;;;;;;;23.33;21.00;;;10.70;84.60;;;;;;5036707;28;20226;-89
2023/11/08 11:50:59;;;;;;;23.53;21.30;;;10.70;85.20;;;;;;5053234;28;20175;-89
2023/11/08 11:53:26;;;;;;;23.23;20.73;;;10.80;84.70;;;;;;5035378;28;20375;-91
2023/11/08 11:56:09;;;;;;;22.03;20.27;;;10.80;84.80;;;;;;5035261;28;20199;-90
2023/11/08 11:58:35;;;;;;;22.47;20.57;;;10.90;85.40;;;;;;5056468;28;20168;-91
2023/11/08 12:01:01;;;;;;;22.03;20.17;;;10.90;85.00;;;;;;5035315;28;20207;-91
2023/11/08 12:03:27;;;;;;;22.13;20.33;;;11.10;84.40;;;;;;5035309;28;20691;-88
2023/11/08 12:05:56;;;;;;;22.80;20.70;;;10.90;84.50;;;;;;5035136;28;20267;-90
2023/11/08 12:08:26;;;;;;;24.97;21.23;;;10.80;84.20;;;;;;5037119;28;20176;-92
2023/11/08 12:11:13;;;;;;;23.73;21.60;;;10.90;84.30;;;;;;5035483;28;20172;-89
2023/11/08 12:13:49;;;;;;;36.80;33.90;;;10.90;84.40;;;;;;5035106;28;20187;-88
2023/11/08 12:16:15;;;;;;;36.10;33.33;;;10.80;84.60;;;;;;5035003;28;20426;-90
2023/11/08 12:18:41;;;;;;;37.43;34.17;;;10.70;84.70;;;;;;5035209;28;20011;-90
2023/11/08 12:21:09;;;;;;;37.90;34.60;;;10.70;85.10;;;;;;5035217;28;20172;-91
2023/11/08 12:23:35;;;;;;;36.10;32.93;;;10.70;85.20;;;;;;5035474;28;20686;-91
2023/11/08 12:26:01;;;;;;;36.87;34.17;;;10.80;85.20;;;;;;5035305;28;20667;-91
2023/11/08 12:28:27;;;;;;;37.87;34.53;;;10.80;84.80;;;;;;5035312;28;20174;-91
2023/11/08 12:30:59;;;;;;;37.83;34.80;;;10.80;84.80;;;;;;5035192;28;20176;-91
2023/11/08 12:33:27;;;;;;;36.07;32.63;;;10.80;85.20;;;;;;5034953;28;20404;-91